createdAt,value
2022-11-04T00:04:35.950Z,19.27
2022-11-04T00:09:58.284Z,19.50
2022-11-04T00:15:38.697Z,21.37
2022-11-04T00:21:20.424Z,21.63
2022-11-04T00:27:00.284Z,19.62
2022-11-04T00:32:41.092Z,18.13
2022-11-04T00:38:03.334Z,22.93
2022-11-04T00:43:25.499Z,19.47
2022-11-04T00:48:47.698Z,21.43
2022-11-04T00:54:09.943Z,18.20
2022-11-04T00:59:32.372Z,18.17
2022-11-04T01:04:54.922Z,19.12
2022-11-04T01:10:18.107Z,18.85
2022-11-04T01:15:40.269Z,20.62
2022-11-04T01:21:04.169Z,13.43
2022-11-04T01:26:31.707Z,18.57
2022-11-04T01:31:53.931Z,16.17
2022-11-04T01:37:16.188Z,19.55
2022-11-04T01:42:40.224Z,26.65
2022-11-04T01:48:10.916Z,15.00
2022-11-04T01:53:40.884Z,18.00
2022-11-04T01:59:06.727Z,15.47
2022-11-04T02:04:30.297Z,20.50
2022-11-04T02:09:54.355Z,20.68
2022-11-04T02:15:18.267Z,15.90
2022-11-04T02:20:57.220Z,17.33
2022-11-04T02:26:57.188Z,22.77
2022-11-04T02:32:27.624Z,18.92
2022-11-04T02:38:12.208Z,16.23
2022-11-04T02:43:50.876Z,17.87
2022-11-04T02:49:30.320Z,14.00
2022-11-04T02:55:21.796Z,21.60
2022-11-04T03:00:45.189Z,20.67
2022-11-04T03:06:11.172Z,20.90
2022-11-04T03:11:36.521Z,20.53
2022-11-04T03:17:04.319Z,18.73
2022-11-04T03:22:30.457Z,21.27
2022-11-04T03:28:11.003Z,15.40
2022-11-04T03:33:55.675Z,16.23
2022-11-04T03:39:18.100Z,18.13
2022-11-04T03:44:42.246Z,13.57
2022-11-04T03:50:17.805Z,17.70
2022-11-04T03:55:47.137Z,14.13
2022-11-04T04:01:19.829Z,17.63
2022-11-04T04:06:48.522Z,20.20
2022-11-04T04:12:30.612Z,14.50
2022-11-04T04:18:06.142Z,17.10
2022-11-04T04:23:50.701Z,22.77
2022-11-04T04:29:15.912Z,15.65
2022-11-04T04:34:41.514Z,17.97
2022-11-04T04:40:27.270Z,15.80
2022-11-04T04:45:54.427Z,15.10
2022-11-04T04:51:16.969Z,17.90
2022-11-04T04:56:39.153Z,15.20
2022-11-04T05:02:01.400Z,21.80
2022-11-04T05:07:24.017Z,16.52
2022-11-04T05:13:06.541Z,17.97
2022-11-04T05:18:29.205Z,21.23
2022-11-04T05:23:51.644Z,16.35
2022-11-04T05:34:37.352Z,17.45
2022-11-04T05:39:59.610Z,17.98
2022-11-04T05:45:22.548Z,15.18
2022-11-04T05:50:47.903Z,16.82
2022-11-04T05:56:10.176Z,20.20
2022-11-04T06:01:45.814Z,16.77
2022-11-04T06:07:08.390Z,18.70
2022-11-04T06:12:32.302Z,17.40
2022-11-04T06:17:56.537Z,18.42
2022-11-04T06:23:18.765Z,17.23
2022-11-04T06:28:41.048Z,23.15
2022-11-04T06:34:03.981Z,17.42
2022-11-04T06:39:26.225Z,19.52
2022-11-04T06:44:48.485Z,18.60
2022-11-04T06:50:11.427Z,16.00
2022-11-04T06:55:34.216Z,20.55
2022-11-04T07:00:59.402Z,17.83
2022-11-04T07:06:25.953Z,18.20
2022-11-04T07:11:50.257Z,22.37
2022-11-04T07:17:12.440Z,19.00
2022-11-04T07:22:34.607Z,20.60
2022-11-04T07:28:01.066Z,20.15
2022-11-04T07:33:21.437Z,19.73
2022-11-04T07:38:44.053Z,19.85
2022-11-04T07:44:11.458Z,18.53
2022-11-04T07:49:34.039Z,18.52
2022-11-04T07:54:56.675Z,17.27
2022-11-04T08:00:19.827Z,21.97
2022-11-04T08:05:42.024Z,19.45
2022-11-04T08:11:06.494Z,22.87
2022-11-04T08:16:34.708Z,22.07
2022-11-04T08:21:57.068Z,22.25
2022-11-04T08:27:20.040Z,23.80
2022-11-04T08:32:42.224Z,22.70
2022-11-04T08:38:04.562Z,17.77
2022-11-04T08:43:28.001Z,26.17
2022-11-04T08:48:51.901Z,28.40
2022-11-04T08:54:14.133Z,20.25
2022-11-04T08:59:36.871Z,20.50
2022-11-04T09:04:59.072Z,22.77
2022-11-04T09:10:21.725Z,21.40
2022-11-04T09:15:44.275Z,20.90
2022-11-04T09:21:06.991Z,24.80
2022-11-04T09:26:31.109Z,18.97
2022-11-04T09:31:53.820Z,22.15
2022-11-04T09:37:16.656Z,23.50
2022-11-04T09:42:52.579Z,27.82
2022-11-04T09:48:22.138Z,21.53
2022-11-04T09:53:56.712Z,20.77
2022-11-04T09:59:23.767Z,19.77
2022-11-04T10:05:10.678Z,22.70
2022-11-04T10:10:45.330Z,23.87
2022-11-04T10:16:24.478Z,22.02
2022-11-04T10:22:09.062Z,16.37
2022-11-04T10:27:41.306Z,23.87
2022-11-04T10:33:42.151Z,21.53
2022-11-04T10:44:32.902Z,22.20
2022-11-04T10:50:27.626Z,21.30
2022-11-04T10:55:55.832Z,20.82
2022-11-04T11:01:46.729Z,22.00
2022-11-04T11:07:16.710Z,19.07
2022-11-04T11:12:51.072Z,21.53
2022-11-04T11:18:25.007Z,19.53
2022-11-04T11:23:58.846Z,19.10
2022-11-04T11:29:24.307Z,22.05
2022-11-04T11:34:54.117Z,22.27
2022-11-04T11:40:18.725Z,23.47
2022-11-04T11:45:42.142Z,22.17
2022-11-04T11:51:09.662Z,24.33
2022-11-04T11:56:59.129Z,19.80
2022-11-04T12:02:10.229Z,18.10
2022-11-04T12:13:45.742Z,20.43
2022-11-04T12:19:47.333Z,19.85
2022-11-04T12:25:48.962Z,20.27
2022-11-04T12:31:30.910Z,26.07
2022-11-04T12:37:04.951Z,23.35
2022-11-04T12:42:47.116Z,18.77
2022-11-04T12:48:17.361Z,21.57
2022-11-04T12:54:15.867Z,20.82
2022-11-04T13:00:10.491Z,19.45
2022-11-04T13:05:37.682Z,19.90
2022-11-04T13:11:29.121Z,25.40
2022-11-04T13:16:55.657Z,19.73
2022-11-04T13:22:23.406Z,18.33
2022-11-04T13:27:52.546Z,21.12
2022-11-04T13:33:57.596Z,18.33
2022-11-04T13:39:30.353Z,21.97
2022-11-04T13:45:01.988Z,21.50
2022-11-04T13:56:31.551Z,25.30
2022-11-04T14:01:37.238Z,29.47
2022-11-04T14:07:17.429Z,27.93
2022-11-04T14:12:47.483Z,23.03
2022-11-04T14:18:13.076Z,25.33
2022-11-04T14:23:36.893Z,24.53
2022-11-04T14:29:16.238Z,22.07
2022-11-04T14:34:45.067Z,26.67
2022-11-04T14:40:12.848Z,22.20
2022-11-04T14:45:40.644Z,22.85
2022-11-04T14:51:06.162Z,24.02
2022-11-04T14:56:34.354Z,22.30
2022-11-04T15:01:59.342Z,23.50
2022-11-04T15:07:29.548Z,25.07
2022-11-04T15:12:55.084Z,40.97
2022-11-04T15:18:29.507Z,25.90
2022-11-04T15:24:08.754Z,28.75
2022-11-04T15:29:33.211Z,29.20
2022-11-04T15:34:56.829Z,26.27
2022-11-04T15:40:20.514Z,25.08
2022-11-04T15:45:58.378Z,26.90
2022-11-04T15:51:36.642Z,26.02
2022-11-04T15:57:03.482Z,23.47
2022-11-04T16:02:35.924Z,56.35
2022-11-04T16:08:26.903Z,27.17
2022-11-04T16:13:49.586Z,28.50
2022-11-04T16:19:20.185Z,29.20
2022-11-04T16:24:53.188Z,25.72
2022-11-04T16:30:23.338Z,28.60
2022-11-04T16:35:47.148Z,24.92
2022-11-04T16:41:09.949Z,24.83
2022-11-04T16:46:32.758Z,29.20
2022-11-04T16:51:56.285Z,29.23
2022-11-04T16:57:19.140Z,32.67
2022-11-04T17:02:47.842Z,32.67
2022-11-04T17:08:10.119Z,32.33
2022-11-04T17:13:37.696Z,28.50
2022-11-04T17:19:00.639Z,27.63
2022-11-04T17:24:23.067Z,28.03
2022-11-04T17:29:45.550Z,32.20
2022-11-04T17:35:07.923Z,27.87
2022-11-04T17:40:32.540Z,35.70
2022-11-04T17:45:56.538Z,34.83
2022-11-04T17:51:20.390Z,33.25
2022-11-04T17:56:49.218Z,34.45
2022-11-04T18:02:12.210Z,31.10
2022-11-04T18:07:35.257Z,33.83
2022-11-04T18:12:57.462Z,31.50
2022-11-04T18:18:19.907Z,34.75
2022-11-04T18:23:42.496Z,35.60
2022-11-04T18:29:05.519Z,39.05
2022-11-04T18:34:30.283Z,34.63
2022-11-04T18:39:52.505Z,33.42
2022-11-04T18:45:15.161Z,34.43
2022-11-04T18:50:38.217Z,32.00
2022-11-04T18:56:00.394Z,33.10
2022-11-04T19:01:36.587Z,32.57
2022-11-04T19:07:00.637Z,35.60
2022-11-04T19:12:41.307Z,29.60
2022-11-04T19:18:03.550Z,34.75
2022-11-04T19:23:25.759Z,32.88
2022-11-04T19:28:51.829Z,37.25
2022-11-04T19:34:16.495Z,33.98
2022-11-04T19:39:38.724Z,43.23
2022-11-04T19:45:00.997Z,36.77
2022-11-04T19:50:23.517Z,37.38
2022-11-04T19:55:45.981Z,33.20
2022-11-04T20:01:13.372Z,34.10
2022-11-04T20:06:36.572Z,34.60
2022-11-04T20:12:17.646Z,37.88
2022-11-04T20:17:40.535Z,37.67
2022-11-04T20:23:02.756Z,38.60
2022-11-04T20:28:24.932Z,34.58
2022-11-04T20:33:49.520Z,32.33
2022-11-04T20:39:19.296Z,31.57
2022-11-04T20:44:44.451Z,32.97
2022-11-04T20:50:06.756Z,38.15
2022-11-04T20:55:29.455Z,32.45
2022-11-04T21:00:51.937Z,35.23
2022-11-04T21:06:15.479Z,33.23
2022-11-04T21:11:39.996Z,32.88
2022-11-04T21:17:02.709Z,30.43
2022-11-04T21:22:25.104Z,32.20
2022-11-04T21:27:47.893Z,37.73
2022-11-04T21:33:10.296Z,30.68
2022-11-04T21:38:34.140Z,31.23
2022-11-04T21:43:58.550Z,30.52
2022-11-04T21:49:23.371Z,33.10
2022-11-04T21:54:45.735Z,32.85
2022-11-04T22:00:08.383Z,33.02
2022-11-04T22:05:30.717Z,30.75
2022-11-04T22:10:54.726Z,32.13
2022-11-04T22:16:31.620Z,34.40
2022-11-04T22:21:57.269Z,33.18
2022-11-04T22:27:19.506Z,32.50
2022-11-04T22:32:42.625Z,29.80
2022-11-04T22:38:04.821Z,33.43
2022-11-04T22:43:27.261Z,32.83
2022-11-04T22:48:50.130Z,34.27
2022-11-04T22:54:12.996Z,32.93
2022-11-04T22:59:35.269Z,33.75
2022-11-04T23:04:58.820Z,30.82
2022-11-04T23:10:39.624Z,38.23
2022-11-04T23:16:19.614Z,31.27
2022-11-04T23:21:59.423Z,33.33
2022-11-04T23:27:39.613Z,31.27
2022-11-04T23:33:04.151Z,31.53
2022-11-04T23:38:26.900Z,30.75
2022-11-04T23:43:50.522Z,30.35
2022-11-04T23:55:18.970Z,32.47
